sensor_id;sensor_type;location;lat;lon;timestamp;temperature;humidity
13721;DHT22;6932;51.438;5.470;2023-07-20T00:01:47;24.10;79.20
13721;DHT22;6932;51.438;5.470;2023-07-20T00:04:13;24.10;79.30
13721;DHT22;6932;51.438;5.470;2023-07-20T00:06:40;24.10;79.30
13721;DHT22;6932;51.438;5.470;2023-07-20T00:09:07;24.00;79.30
13721;DHT22;6932;51.438;5.470;2023-07-20T00:11:36;24.00;79.40
13721;DHT22;6932;51.438;5.470;2023-07-20T00:14:05;24.00;79.60
13721;DHT22;6932;51.438;5.470;2023-07-20T00:16:32;23.90;79.50
13721;DHT22;6932;51.438;5.470;2023-07-20T00:18:58;23.90;79.50
13721;DHT22;6932;51.438;5.470;2023-07-20T00:21:24;23.90;79.60
13721;DHT22;6932;51.438;5.470;2023-07-20T00:23:50;23.80;79.80
13721;DHT22;6932;51.438;5.470;2023-07-20T00:26:16;23.80;79.80
13721;DHT22;6932;51.438;5.470;2023-07-20T00:28:43;23.80;79.80
13721;DHT22;6932;51.438;5.470;2023-07-20T00:31:09;23.70;80.00
13721;DHT22;6932;51.438;5.470;2023-07-20T00:33:35;23.70;80.00
13721;DHT22;6932;51.438;5.470;2023-07-20T00:36:00;23.60;80.00
13721;DHT22;6932;51.438;5.470;2023-07-20T00:38:26;23.60;80.20
13721;DHT22;6932;51.438;5.470;2023-07-20T00:40:52;23.50;80.20
13721;DHT22;6932;51.438;5.470;2023-07-20T00:43:18;23.50;80.20
13721;DHT22;6932;51.438;5.470;2023-07-20T00:45:44;23.50;80.40
13721;DHT22;6932;51.438;5.470;2023-07-20T00:48:11;23.50;80.40
13721;DHT22;6932;51.438;5.470;2023-07-20T00:50:38;23.40;80.60
13721;DHT22;6932;51.438;5.470;2023-07-20T00:53:05;23.40;80.70
13721;DHT22;6932;51.438;5.470;2023-07-20T00:55:32;23.40;80.80
13721;DHT22;6932;51.438;5.470;2023-07-20T00:57:59;23.30;80.60
13721;DHT22;6932;51.438;5.470;2023-07-20T01:00:25;23.30;80.80
13721;DHT22;6932;51.438;5.470;2023-07-20T01:02:51;23.30;80.70
13721;DHT22;6932;51.438;5.470;2023-07-20T01:05:17;23.30;81.00
13721;DHT22;6932;51.438;5.470;2023-07-20T01:07:55;23.20;81.00
13721;DHT22;6932;51.438;5.470;2023-07-20T01:11:16;23.20;81.20
13721;DHT22;6932;51.438;5.470;2023-07-20T01:14:03;23.20;81.20
13721;DHT22;6932;51.438;5.470;2023-07-20T01:16:30;23.20;81.30
13721;DHT22;6932;51.438;5.470;2023-07-20T01:18:56;23.10;81.30
13721;DHT22;6932;51.438;5.470;2023-07-20T01:21:30;23.10;81.40
13721;DHT22;6932;51.438;5.470;2023-07-20T01:32:08;23.00;81.90
13721;DHT22;6932;51.438;5.470;2023-07-20T01:34:36;23.00;82.10
13721;DHT22;6932;51.438;5.470;2023-07-20T01:37:03;22.90;82.10
13721;DHT22;6932;51.438;5.470;2023-07-20T01:39:32;22.90;82.30
13721;DHT22;6932;51.438;5.470;2023-07-20T01:41:59;22.90;82.30
13721;DHT22;6932;51.438;5.470;2023-07-20T01:44:25;22.80;82.30
13721;DHT22;6932;51.438;5.470;2023-07-20T01:46:51;22.80;82.30
13721;DHT22;6932;51.438;5.470;2023-07-20T01:49:17;22.80;82.40
13721;DHT22;6932;51.438;5.470;2023-07-20T01:51:42;22.80;82.50
13721;DHT22;6932;51.438;5.470;2023-07-20T01:54:08;22.80;82.70
13721;DHT22;6932;51.438;5.470;2023-07-20T01:56:34;22.80;82.80
13721;DHT22;6932;51.438;5.470;2023-07-20T01:59:00;22.80;82.90
13721;DHT22;6932;51.438;5.470;2023-07-20T02:01:25;22.70;83.10
13721;DHT22;6932;51.438;5.470;2023-07-20T02:03:54;22.70;83.20
13721;DHT22;6932;51.438;5.470;2023-07-20T02:06:19;22.70;83.30
13721;DHT22;6932;51.438;5.470;2023-07-20T02:08:45;22.70;83.50
13721;DHT22;6932;51.438;5.470;2023-07-20T02:11:11;22.70;83.50
13721;DHT22;6932;51.438;5.470;2023-07-20T02:13:37;22.70;83.70
13721;DHT22;6932;51.438;5.470;2023-07-20T02:16:03;22.70;83.80
13721;DHT22;6932;51.438;5.470;2023-07-20T02:18:29;22.60;84.00
13721;DHT22;6932;51.438;5.470;2023-07-20T02:20:55;22.60;84.10
13721;DHT22;6932;51.438;5.470;2023-07-20T02:23:21;22.70;84.30
13721;DHT22;6932;51.438;5.470;2023-07-20T02:25:47;22.70;84.50
13721;DHT22;6932;51.438;5.470;2023-07-20T02:28:15;22.60;84.60
13721;DHT22;6932;51.438;5.470;2023-07-20T02:30:41;22.60;84.90
13721;DHT22;6932;51.438;5.470;2023-07-20T02:33:07;22.60;84.90
13721;DHT22;6932;51.438;5.470;2023-07-20T02:35:33;22.60;85.00
13721;DHT22;6932;51.438;5.470;2023-07-20T02:37:59;22.60;85.10
13721;DHT22;6932;51.438;5.470;2023-07-20T02:40:25;22.60;85.30
13721;DHT22;6932;51.438;5.470;2023-07-20T02:42:51;22.60;85.50
13721;DHT22;6932;51.438;5.470;2023-07-20T02:45:17;22.70;85.70
13721;DHT22;6932;51.438;5.470;2023-07-20T02:47:43;22.60;85.80
13721;DHT22;6932;51.438;5.470;2023-07-20T02:50:09;22.70;86.10
13721;DHT22;6932;51.438;5.470;2023-07-20T02:52:34;22.70;86.20
13721;DHT22;6932;51.438;5.470;2023-07-20T02:55:00;22.70;86.30
13721;DHT22;6932;51.438;5.470;2023-07-20T02:57:26;22.70;86.30
13721;DHT22;6932;51.438;5.470;2023-07-20T02:59:52;22.70;86.40
13721;DHT22;6932;51.438;5.470;2023-07-20T03:02:19;22.70;86.60
13721;DHT22;6932;51.438;5.470;2023-07-20T03:04:44;22.70;86.60
13721;DHT22;6932;51.438;5.470;2023-07-20T03:07:10;22.70;86.60
13721;DHT22;6932;51.438;5.470;2023-07-20T03:09:36;22.70;86.70
13721;DHT22;6932;51.438;5.470;2023-07-20T03:12:02;22.70;86.80
13721;DHT22;6932;51.438;5.470;2023-07-20T03:14:30;22.70;86.90
13721;DHT22;6932;51.438;5.470;2023-07-20T03:16:55;22.70;86.90
13721;DHT22;6932;51.438;5.470;2023-07-20T03:19:21;22.70;87.00
13721;DHT22;6932;51.438;5.470;2023-07-20T03:21:47;22.70;87.00
13721;DHT22;6932;51.438;5.470;2023-07-20T03:24:13;22.70;87.00
13721;DHT22;6932;51.438;5.470;2023-07-20T03:26:39;22.70;87.00
13721;DHT22;6932;51.438;5.470;2023-07-20T03:29:05;22.70;87.00
13721;DHT22;6932;51.438;5.470;2023-07-20T03:31:32;22.70;87.00
13721;DHT22;6932;51.438;5.470;2023-07-20T03:33:58;22.70;87.10
13721;DHT22;6932;51.438;5.470;2023-07-20T03:36:24;22.70;87.00
13721;DHT22;6932;51.438;5.470;2023-07-20T03:38:49;22.60;87.00
13721;DHT22;6932;51.438;5.470;2023-07-20T03:41:15;22.70;87.00
13721;DHT22;6932;51.438;5.470;2023-07-20T03:43:45;22.70;87.10
13721;DHT22;6932;51.438;5.470;2023-07-20T03:46:11;22.70;87.00
13721;DHT22;6932;51.438;5.470;2023-07-20T03:48:36;22.70;86.90
13721;DHT22;6932;51.438;5.470;2023-07-20T03:51:02;22.70;86.70
13721;DHT22;6932;51.438;5.470;2023-07-20T03:53:28;22.70;86.80
13721;DHT22;6932;51.438;5.470;2023-07-20T03:55:54;22.70;86.80
13721;DHT22;6932;51.438;5.470;2023-07-20T03:58:20;22.70;86.80
13721;DHT22;6932;51.438;5.470;2023-07-20T04:00:51;22.70;86.90
13721;DHT22;6932;51.438;5.470;2023-07-20T04:03:21;22.70;87.00
13721;DHT22;6932;51.438;5.470;2023-07-20T04:05:50;22.70;87.10
13721;DHT22;6932;51.438;5.470;2023-07-20T04:08:16;22.70;86.90
13721;DHT22;6932;51.438;5.470;2023-07-20T04:10:45;22.60;86.80
13721;DHT22;6932;51.438;5.470;2023-07-20T04:13:11;22.70;86.80
13721;DHT22;6932;51.438;5.470;2023-07-20T04:15:37;22.60;86.90
13721;DHT22;6932;51.438;5.470;2023-07-20T04:18:03;22.60;86.80
13721;DHT22;6932;51.438;5.470;2023-07-20T04:20:29;22.60;86.80
13721;DHT22;6932;51.438;5.470;2023-07-20T04:22:55;22.60;86.80
13721;DHT22;6932;51.438;5.470;2023-07-20T04:25:21;22.60;86.90
13721;DHT22;6932;51.438;5.470;2023-07-20T04:27:47;22.60;87.00
13721;DHT22;6932;51.438;5.470;2023-07-20T04:30:13;22.60;87.00
13721;DHT22;6932;51.438;5.470;2023-07-20T04:32:39;22.60;87.10
13721;DHT22;6932;51.438;5.470;2023-07-20T04:35:09;22.60;87.00
13721;DHT22;6932;51.438;5.470;2023-07-20T04:37:35;22.50;87.00
13721;DHT22;6932;51.438;5.470;2023-07-20T04:40:01;22.60;87.30
13721;DHT22;6932;51.438;5.470;2023-07-20T04:42:28;22.50;87.50
13721;DHT22;6932;51.438;5.470;2023-07-20T04:44:54;22.60;87.70
13721;DHT22;6932;51.438;5.470;2023-07-20T04:47:20;22.60;87.70
13721;DHT22;6932;51.438;5.470;2023-07-20T04:49:46;22.60;87.50
13721;DHT22;6932;51.438;5.470;2023-07-20T04:52:11;22.60;87.40
13721;DHT22;6932;51.438;5.470;2023-07-20T04:54:37;22.70;87.00
13721;DHT22;6932;51.438;5.470;2023-07-20T04:57:05;22.70;86.80
13721;DHT22;6932;51.438;5.470;2023-07-20T04:59:36;22.70;86.80
13721;DHT22;6932;51.438;5.470;2023-07-20T05:02:02;22.70;86.60
13721;DHT22;6932;51.438;5.470;2023-07-20T05:04:29;22.70;86.40
13721;DHT22;6932;51.438;5.470;2023-07-20T05:06:55;22.70;86.60
13721;DHT22;6932;51.438;5.470;2023-07-20T05:09:20;22.70;86.60
13721;DHT22;6932;51.438;5.470;2023-07-20T05:11:48;22.70;86.80
13721;DHT22;6932;51.438;5.470;2023-07-20T05:14:14;22.80;86.50
13721;DHT22;6932;51.438;5.470;2023-07-20T05:16:40;22.80;85.90
13721;DHT22;6932;51.438;5.470;2023-07-20T05:19:05;22.80;85.90
13721;DHT22;6932;51.438;5.470;2023-07-20T05:21:31;22.90;86.60
13721;DHT22;6932;51.438;5.470;2023-07-20T05:23:57;22.90;85.70
13721;DHT22;6932;51.438;5.470;2023-07-20T05:26:23;23.00;85.60
13721;DHT22;6932;51.438;5.470;2023-07-20T05:28:48;23.00;85.40
13721;DHT22;6932;51.438;5.470;2023-07-20T05:31:14;23.00;85.30
13721;DHT22;6932;51.438;5.470;2023-07-20T05:33:40;23.00;84.80
13721;DHT22;6932;51.438;5.470;2023-07-20T05:36:06;23.10;84.70
13721;DHT22;6932;51.438;5.470;2023-07-20T05:38:32;23.10;84.40
13721;DHT22;6932;51.438;5.470;2023-07-20T05:41:01;23.20;84.10
13721;DHT22;6932;51.438;5.470;2023-07-20T05:43:27;23.10;83.90
13721;DHT22;6932;51.438;5.470;2023-07-20T05:45:53;23.20;84.10
13721;DHT22;6932;51.438;5.470;2023-07-20T05:48:19;23.20;84.30
13721;DHT22;6932;51.438;5.470;2023-07-20T05:50:44;23.20;84.60
13721;DHT22;6932;51.438;5.470;2023-07-20T05:53:10;23.30;84.60
13721;DHT22;6932;51.438;5.470;2023-07-20T05:55:36;23.30;84.70
13721;DHT22;6932;51.438;5.470;2023-07-20T05:58:03;23.40;84.60
13721;DHT22;6932;51.438;5.470;2023-07-20T06:00:29;23.50;84.20
13721;DHT22;6932;51.438;5.470;2023-07-20T06:02:55;23.70;84.10
13721;DHT22;6932;51.438;5.470;2023-07-20T06:05:22;23.80;83.90
13721;DHT22;6932;51.438;5.470;2023-07-20T06:07:49;23.90;83.00
13721;DHT22;6932;51.438;5.470;2023-07-20T06:10:16;24.10;82.60
13721;DHT22;6932;51.438;5.470;2023-07-20T06:12:42;24.20;82.20
13721;DHT22;6932;51.438;5.470;2023-07-20T06:15:25;24.30;81.60
13721;DHT22;6932;51.438;5.470;2023-07-20T06:17:53;24.40;81.10
13721;DHT22;6932;51.438;5.470;2023-07-20T06:20:19;24.60;80.70
13721;DHT22;6932;51.438;5.470;2023-07-20T06:22:45;24.70;79.90
13721;DHT22;6932;51.438;5.470;2023-07-20T06:25:11;24.80;79.30
13721;DHT22;6932;51.438;5.470;2023-07-20T06:27:37;24.90;79.20
13721;DHT22;6932;51.438;5.470;2023-07-20T06:30:03;24.90;78.60
13721;DHT22;6932;51.438;5.470;2023-07-20T06:32:29;25.00;78.00
13721;DHT22;6932;51.438;5.470;2023-07-20T06:34:55;25.10;77.50
13721;DHT22;6932;51.438;5.470;2023-07-20T06:37:21;25.10;77.10
13721;DHT22;6932;51.438;5.470;2023-07-20T06:39:46;25.10;76.90
13721;DHT22;6932;51.438;5.470;2023-07-20T06:42:12;25.10;76.60
13721;DHT22;6932;51.438;5.470;2023-07-20T06:44:39;25.10;76.60
13721;DHT22;6932;51.438;5.470;2023-07-20T06:47:05;25.10;77.20
13721;DHT22;6932;51.438;5.470;2023-07-20T06:49:38;25.10;77.40
13721;DHT22;6932;51.438;5.470;2023-07-20T06:52:07;25.00;77.40
13721;DHT22;6932;51.438;5.470;2023-07-20T06:54:36;25.20;77.70
13721;DHT22;6932;51.438;5.470;2023-07-20T06:57:04;25.20;77.40
13721;DHT22;6932;51.438;5.470;2023-07-20T06:59:30;25.20;76.90
13721;DHT22;6932;51.438;5.470;2023-07-20T07:01:56;25.30;75.80
13721;DHT22;6932;51.438;5.470;2023-07-20T07:04:22;25.40;75.70
13721;DHT22;6932;51.438;5.470;2023-07-20T07:06:48;25.60;75.10
13721;DHT22;6932;51.438;5.470;2023-07-20T07:09:14;25.60;74.40
13721;DHT22;6932;51.438;5.470;2023-07-20T07:11:40;25.70;73.90
13721;DHT22;6932;51.438;5.470;2023-07-20T07:14:06;25.70;73.90
13721;DHT22;6932;51.438;5.470;2023-07-20T07:16:33;25.60;74.20
13721;DHT22;6932;51.438;5.470;2023-07-20T07:19:01;25.60;73.60
13721;DHT22;6932;51.438;5.470;2023-07-20T07:21:29;25.60;73.50
13721;DHT22;6932;51.438;5.470;2023-07-20T07:23:55;25.60;73.40
13721;DHT22;6932;51.438;5.470;2023-07-20T07:26:23;25.60;73.30
13721;DHT22;6932;51.438;5.470;2023-07-20T07:28:49;25.60;73.70
13721;DHT22;6932;51.438;5.470;2023-07-20T07:31:15;25.60;73.10
13721;DHT22;6932;51.438;5.470;2023-07-20T07:33:41;25.60;72.70
13721;DHT22;6932;51.438;5.470;2023-07-20T07:36:07;25.70;72.80
13721;DHT22;6932;51.438;5.470;2023-07-20T07:38:33;25.70;72.30
13721;DHT22;6932;51.438;5.470;2023-07-20T07:40:59;25.80;72.30
13721;DHT22;6932;51.438;5.470;2023-07-20T07:43:25;25.90;72.00
13721;DHT22;6932;51.438;5.470;2023-07-20T07:45:54;25.90;71.80
13721;DHT22;6932;51.438;5.470;2023-07-20T07:48:21;25.90;71.80
13721;DHT22;6932;51.438;5.470;2023-07-20T07:50:47;25.90;71.70
13721;DHT22;6932;51.438;5.470;2023-07-20T07:53:13;25.90;71.40
13721;DHT22;6932;51.438;5.470;2023-07-20T07:55:39;25.90;70.40
13721;DHT22;6932;51.438;5.470;2023-07-20T07:58:06;25.90;70.00
13721;DHT22;6932;51.438;5.470;2023-07-20T08:00:32;25.90;69.90
13721;DHT22;6932;51.438;5.470;2023-07-20T08:02:58;25.80;69.80
13721;DHT22;6932;51.438;5.470;2023-07-20T08:05:24;25.70;69.80
13721;DHT22;6932;51.438;5.470;2023-07-20T08:07:50;25.70;70.10
13721;DHT22;6932;51.438;5.470;2023-07-20T08:10:16;25.60;70.00
13721;DHT22;6932;51.438;5.470;2023-07-20T08:12:42;25.60;69.70
13721;DHT22;6932;51.438;5.470;2023-07-20T08:15:11;25.60;70.00
13721;DHT22;6932;51.438;5.470;2023-07-20T08:17:38;25.60;70.70
13721;DHT22;6932;51.438;5.470;2023-07-20T08:20:04;25.70;70.10
13721;DHT22;6932;51.438;5.470;2023-07-20T08:22:31;25.70;70.20
13721;DHT22;6932;51.438;5.470;2023-07-20T08:24:57;25.90;70.00
13721;DHT22;6932;51.438;5.470;2023-07-20T08:27:24;26.00;69.90
13721;DHT22;6932;51.438;5.470;2023-07-20T08:29:50;26.20;69.60
13721;DHT22;6932;51.438;5.470;2023-07-20T08:32:16;26.30;68.90
13721;DHT22;6932;51.438;5.470;2023-07-20T08:34:42;26.50;69.10
13721;DHT22;6932;51.438;5.470;2023-07-20T08:37:08;26.70;68.20
13721;DHT22;6932;51.438;5.470;2023-07-20T08:39:38;26.90;68.00
13721;DHT22;6932;51.438;5.470;2023-07-20T08:42:07;27.10;66.80
13721;DHT22;6932;51.438;5.470;2023-07-20T08:44:41;27.30;67.10
13721;DHT22;6932;51.438;5.470;2023-07-20T08:47:13;27.50;66.20
13721;DHT22;6932;51.438;5.470;2023-07-20T08:50:19;27.80;65.90
13721;DHT22;6932;51.438;5.470;2023-07-20T08:53:03;28.00;65.30
13721;DHT22;6932;51.438;5.470;2023-07-20T08:55:32;28.10;64.00
13721;DHT22;6932;51.438;5.470;2023-07-20T09:06:17;28.40;62.50
13721;DHT22;6932;51.438;5.470;2023-07-20T09:13:57;28.40;62.30
13721;DHT22;6932;51.438;5.470;2023-07-20T10:00:48;29.00;60.10
13721;DHT22;6932;51.438;5.470;2023-07-20T10:03:31;29.00;60.00
13721;DHT22;6932;51.438;5.470;2023-07-20T10:09:34;29.20;58.00
13721;DHT22;6932;51.438;5.470;2023-07-20T10:16:00;29.00;58.40
13721;DHT22;6932;51.438;5.470;2023-07-20T10:22:29;29.00;58.40
13721;DHT22;6932;51.438;5.470;2023-07-20T10:25:17;28.90;58.50
13721;DHT22;6932;51.438;5.470;2023-07-20T10:28:05;28.90;58.00
13721;DHT22;6932;51.438;5.470;2023-07-20T10:30:56;28.90;58.40
13721;DHT22;6932;51.438;5.470;2023-07-20T10:33:33;28.80;58.30
13721;DHT22;6932;51.438;5.470;2023-07-20T10:48:27;29.00;58.20
13721;DHT22;6932;51.438;5.470;2023-07-20T10:56:18;28.90;57.90
13721;DHT22;6932;51.438;5.470;2023-07-20T11:00:48;29.00;57.80
13721;DHT22;6932;51.438;5.470;2023-07-20T11:03:38;28.80;57.70
13721;DHT22;6932;51.438;5.470;2023-07-20T11:08:55;28.70;57.70
13721;DHT22;6932;51.438;5.470;2023-07-20T11:11:39;28.70;57.70
13721;DHT22;6932;51.438;5.470;2023-07-20T11:14:08;28.70;57.60
13721;DHT22;6932;51.438;5.470;2023-07-20T11:16:45;28.70;57.60
13721;DHT22;6932;51.438;5.470;2023-07-20T11:19:17;28.70;58.10
13721;DHT22;6932;51.438;5.470;2023-07-20T11:21:49;28.70;58.80
13721;DHT22;6932;51.438;5.470;2023-07-20T11:24:19;28.70;58.40
13721;DHT22;6932;51.438;5.470;2023-07-20T11:26:50;28.70;57.90
13721;DHT22;6932;51.438;5.470;2023-07-20T11:29:21;28.60;57.70
13721;DHT22;6932;51.438;5.470;2023-07-20T11:31:49;28.60;57.90
13721;DHT22;6932;51.438;5.470;2023-07-20T11:34:19;28.50;57.90
13721;DHT22;6932;51.438;5.470;2023-07-20T11:36:50;28.50;58.30
13721;DHT22;6932;51.438;5.470;2023-07-20T11:42:59;28.50;58.40
13721;DHT22;6932;51.438;5.470;2023-07-20T11:45:25;28.60;58.20
13721;DHT22;6932;51.438;5.470;2023-07-20T11:48:00;28.60;57.70
13721;DHT22;6932;51.438;5.470;2023-07-20T11:50:41;28.60;57.70
13721;DHT22;6932;51.438;5.470;2023-07-20T11:53:09;28.60;57.60
13721;DHT22;6932;51.438;5.470;2023-07-20T11:55:42;28.60;57.80
13721;DHT22;6932;51.438;5.470;2023-07-20T11:58:11;28.50;58.00
13721;DHT22;6932;51.438;5.470;2023-07-20T12:00:44;28.50;57.70
13721;DHT22;6932;51.438;5.470;2023-07-20T12:03:13;28.50;57.90
13721;DHT22;6932;51.438;5.470;2023-07-20T12:06:09;28.60;57.50
13721;DHT22;6932;51.438;5.470;2023-07-20T12:08:41;28.60;57.60
13721;DHT22;6932;51.438;5.470;2023-07-20T12:11:28;28.60;57.80
13721;DHT22;6932;51.438;5.470;2023-07-20T12:13:59;28.60;57.70
13721;DHT22;6932;51.438;5.470;2023-07-20T12:16:29;28.60;57.50
13721;DHT22;6932;51.438;5.470;2023-07-20T12:19:09;28.60;57.30
13721;DHT22;6932;51.438;5.470;2023-07-20T12:24:26;28.60;57.70
13721;DHT22;6932;51.438;5.470;2023-07-20T12:26:56;28.60;57.10
13721;DHT22;6932;51.438;5.470;2023-07-20T12:29:23;28.50;57.20
13721;DHT22;6932;51.438;5.470;2023-07-20T12:31:51;28.50;57.30
13721;DHT22;6932;51.438;5.470;2023-07-20T12:34:48;28.50;57.40
13721;DHT22;6932;51.438;5.470;2023-07-20T12:37:18;28.40;57.40
13721;DHT22;6932;51.438;5.470;2023-07-20T12:39:49;28.50;57.50
13721;DHT22;6932;51.438;5.470;2023-07-20T12:42:17;28.50;57.70
13721;DHT22;6932;51.438;5.470;2023-07-20T12:44:42;28.40;57.70
13721;DHT22;6932;51.438;5.470;2023-07-20T12:47:09;28.40;57.60
13721;DHT22;6932;51.438;5.470;2023-07-20T12:49:38;28.40;57.70
13721;DHT22;6932;51.438;5.470;2023-07-20T12:52:12;28.30;57.70
13721;DHT22;6932;51.438;5.470;2023-07-20T12:54:38;28.20;57.50
13721;DHT22;6932;51.438;5.470;2023-07-20T12:57:19;28.30;57.80
13721;DHT22;6932;51.438;5.470;2023-07-20T13:27:17;28.20;58.10
13721;DHT22;6932;51.438;5.470;2023-07-20T13:30:33;28.20;58.10
13721;DHT22;6932;51.438;5.470;2023-07-20T13:33:15;28.30;58.10
13721;DHT22;6932;51.438;5.470;2023-07-20T13:36:46;28.40;58.10
13721;DHT22;6932;51.438;5.470;2023-07-20T13:43:57;28.40;57.90
13721;DHT22;6932;51.438;5.470;2023-07-20T13:53:49;28.80;56.40
13721;DHT22;6932;51.438;5.470;2023-07-20T13:57:34;28.80;55.70
13721;DHT22;6932;51.438;5.470;2023-07-20T14:01:03;28.90;55.50
13721;DHT22;6932;51.438;5.470;2023-07-20T14:07:59;29.00;55.70
13721;DHT22;6932;51.438;5.470;2023-07-20T14:11:32;29.00;55.60
13721;DHT22;6932;51.438;5.470;2023-07-20T14:15:06;29.00;55.60
13721;DHT22;6932;51.438;5.470;2023-07-20T14:26:18;28.90;55.40
13721;DHT22;6932;51.438;5.470;2023-07-20T14:29:58;28.90;55.20
13721;DHT22;6932;51.438;5.470;2023-07-20T14:37:13;28.80;55.60
13721;DHT22;6932;51.438;5.470;2023-07-20T14:40:17;28.80;55.40
13721;DHT22;6932;51.438;5.470;2023-07-20T14:54:33;28.80;55.50
13721;DHT22;6932;51.438;5.470;2023-07-20T15:12:17;28.80;55.30
13721;DHT22;6932;51.438;5.470;2023-07-20T15:38:38;28.70;55.00
13721;DHT22;6932;51.438;5.470;2023-07-20T15:41:04;28.70;54.80
13721;DHT22;6932;51.438;5.470;2023-07-20T15:43:30;28.60;55.00
13721;DHT22;6932;51.438;5.470;2023-07-20T15:48:48;28.50;55.70
13721;DHT22;6932;51.438;5.470;2023-07-20T15:51:16;28.50;55.70
13721;DHT22;6932;51.438;5.470;2023-07-20T15:53:42;28.50;55.70
13721;DHT22;6932;51.438;5.470;2023-07-20T15:56:12;28.40;55.60
13721;DHT22;6932;51.438;5.470;2023-07-20T16:01:29;28.30;56.00
13721;DHT22;6932;51.438;5.470;2023-07-20T16:03:59;28.20;56.50
13721;DHT22;6932;51.438;5.470;2023-07-20T16:06:28;28.20;56.80
13721;DHT22;6932;51.438;5.470;2023-07-20T16:09:02;28.20;57.80
13721;DHT22;6932;51.438;5.470;2023-07-20T16:11:33;28.10;57.40
13721;DHT22;6932;51.438;5.470;2023-07-20T16:14:07;28.10;57.60
13721;DHT22;6932;51.438;5.470;2023-07-20T16:16:35;28.00;57.50
13721;DHT22;6932;51.438;5.470;2023-07-20T16:19:06;28.10;57.70
13721;DHT22;6932;51.438;5.470;2023-07-20T16:21:37;28.00;57.60
13721;DHT22;6932;51.438;5.470;2023-07-20T16:24:06;28.00;57.70
13721;DHT22;6932;51.438;5.470;2023-07-20T16:26:32;28.00;57.50
13721;DHT22;6932;51.438;5.470;2023-07-20T16:29:21;28.00;57.40
13721;DHT22;6932;51.438;5.470;2023-07-20T16:31:53;27.90;57.80
13721;DHT22;6932;51.438;5.470;2023-07-20T16:34:22;27.90;58.10
13721;DHT22;6932;51.438;5.470;2023-07-20T16:36:48;27.90;57.90
13721;DHT22;6932;51.438;5.470;2023-07-20T16:39:15;27.90;57.80
13721;DHT22;6932;51.438;5.470;2023-07-20T16:41:51;27.80;57.90
13721;DHT22;6932;51.438;5.470;2023-07-20T16:44:20;27.70;58.00
13721;DHT22;6932;51.438;5.470;2023-07-20T16:46:55;27.70;58.10
13721;DHT22;6932;51.438;5.470;2023-07-20T16:49:21;27.70;58.20
13721;DHT22;6932;51.438;5.470;2023-07-20T16:51:50;27.70;57.80
13721;DHT22;6932;51.438;5.470;2023-07-20T16:54:16;27.70;57.90
13721;DHT22;6932;51.438;5.470;2023-07-20T16:56:44;27.70;57.80
13721;DHT22;6932;51.438;5.470;2023-07-20T16:59:10;27.70;57.80
13721;DHT22;6932;51.438;5.470;2023-07-20T17:01:36;27.70;57.80
13721;DHT22;6932;51.438;5.470;2023-07-20T17:04:02;27.70;57.80
13721;DHT22;6932;51.438;5.470;2023-07-20T17:11:09;27.70;58.30
13721;DHT22;6932;51.438;5.470;2023-07-20T17:14:03;27.70;58.00
13721;DHT22;6932;51.438;5.470;2023-07-20T17:16:37;27.70;57.70
13721;DHT22;6932;51.438;5.470;2023-07-20T17:19:13;27.70;57.80
13721;DHT22;6932;51.438;5.470;2023-07-20T17:21:50;27.70;58.30
13721;DHT22;6932;51.438;5.470;2023-07-20T17:24:51;27.60;58.70
13721;DHT22;6932;51.438;5.470;2023-07-20T17:27:41;27.60;59.00
13721;DHT22;6932;51.438;5.470;2023-07-20T17:30:25;27.60;59.20
13721;DHT22;6932;51.438;5.470;2023-07-20T17:32:51;27.60;59.40
13721;DHT22;6932;51.438;5.470;2023-07-20T17:35:22;27.50;59.70
13721;DHT22;6932;51.438;5.470;2023-07-20T17:38:19;27.40;60.00
13721;DHT22;6932;51.438;5.470;2023-07-20T17:44:28;27.30;60.80
13721;DHT22;6932;51.438;5.470;2023-07-20T17:51:46;27.00;61.00
13721;DHT22;6932;51.438;5.470;2023-07-20T17:54:37;26.90;61.30
13721;DHT22;6932;51.438;5.470;2023-07-20T17:57:37;26.80;61.40
13721;DHT22;6932;51.438;5.470;2023-07-20T18:04:31;26.50;61.50
13721;DHT22;6932;51.438;5.470;2023-07-20T18:10:49;26.30;61.60
13721;DHT22;6932;51.438;5.470;2023-07-20T18:13:51;26.20;62.00
13721;DHT22;6932;51.438;5.470;2023-07-20T18:19:48;26.10;61.90
13721;DHT22;6932;51.438;5.470;2023-07-20T18:22:30;26.10;62.00
13721;DHT22;6932;51.438;5.470;2023-07-20T18:28:35;26.00;61.90
13721;DHT22;6932;51.438;5.470;2023-07-20T18:31:36;26.00;62.10
13721;DHT22;6932;51.438;5.470;2023-07-20T18:34:08;26.00;62.60
13721;DHT22;6932;51.438;5.470;2023-07-20T18:37:06;26.00;63.30
13721;DHT22;6932;51.438;5.470;2023-07-20T18:40:09;25.80;63.60
13721;DHT22;6932;51.438;5.470;2023-07-20T18:43:19;26.00;64.30
13721;DHT22;6932;51.438;5.470;2023-07-20T18:47:02;25.90;64.40
13721;DHT22;6932;51.438;5.470;2023-07-20T18:50:07;25.90;64.40
13721;DHT22;6932;51.438;5.470;2023-07-20T18:53:27;25.80;64.70
13721;DHT22;6932;51.438;5.470;2023-07-20T18:56:07;25.80;65.10
13721;DHT22;6932;51.438;5.470;2023-07-20T18:59:01;25.70;64.70
13721;DHT22;6932;51.438;5.470;2023-07-20T19:02:20;25.60;64.60
13721;DHT22;6932;51.438;5.470;2023-07-20T19:05:14;25.60;64.30
13721;DHT22;6932;51.438;5.470;2023-07-20T19:08:41;25.60;64.80
13721;DHT22;6932;51.438;5.470;2023-07-20T19:11:42;25.60;64.50
13721;DHT22;6932;51.438;5.470;2023-07-20T19:18:20;25.60;64.40
13721;DHT22;6932;51.438;5.470;2023-07-20T19:25:11;25.60;63.80
13721;DHT22;6932;51.438;5.470;2023-07-20T19:28:17;25.50;64.00
13721;DHT22;6932;51.438;5.470;2023-07-20T19:31:33;25.50;64.10
13721;DHT22;6932;51.438;5.470;2023-07-20T19:34:31;25.40;64.10
13721;DHT22;6932;51.438;5.470;2023-07-20T19:37:00;25.30;64.40
13721;DHT22;6932;51.438;5.470;2023-07-20T19:39:27;25.30;64.60
13721;DHT22;6932;51.438;5.470;2023-07-20T19:41:58;25.20;64.40
13721;DHT22;6932;51.438;5.470;2023-07-20T19:44:29;25.10;64.50
13721;DHT22;6932;51.438;5.470;2023-07-20T19:46:56;25.10;64.50
13721;DHT22;6932;51.438;5.470;2023-07-20T19:49:22;25.10;64.60
13721;DHT22;6932;51.438;5.470;2023-07-20T19:51:50;25.00;64.80
13721;DHT22;6932;51.438;5.470;2023-07-20T19:54:19;25.00;65.00
13721;DHT22;6932;51.438;5.470;2023-07-20T19:56:46;24.90;65.40
13721;DHT22;6932;51.438;5.470;2023-07-20T19:59:12;24.90;65.50
13721;DHT22;6932;51.438;5.470;2023-07-20T20:01:38;24.90;65.50
13721;DHT22;6932;51.438;5.470;2023-07-20T20:04:04;24.90;65.60
13721;DHT22;6932;51.438;5.470;2023-07-20T20:06:33;24.90;65.70
13721;DHT22;6932;51.438;5.470;2023-07-20T20:08:59;24.90;65.60
13721;DHT22;6932;51.438;5.470;2023-07-20T20:11:27;25.00;65.60
13721;DHT22;6932;51.438;5.470;2023-07-20T20:13:53;25.00;65.40
13721;DHT22;6932;51.438;5.470;2023-07-20T20:16:24;25.10;65.40
13721;DHT22;6932;51.438;5.470;2023-07-20T20:18:50;25.10;65.30
13721;DHT22;6932;51.438;5.470;2023-07-20T20:21:15;25.10;65.40
13721;DHT22;6932;51.438;5.470;2023-07-20T20:23:41;25.10;65.30
13721;DHT22;6932;51.438;5.470;2023-07-20T20:26:08;25.00;64.90
13721;DHT22;6932;51.438;5.470;2023-07-20T20:28:34;25.30;65.00
13721;DHT22;6932;51.438;5.470;2023-07-20T20:31:11;25.30;64.70
13721;DHT22;6932;51.438;5.470;2023-07-20T20:33:43;25.30;64.50